Terminal Aerodrome Forecast
Issued by NWS

Home | Current Version | Previous Version | Text Only | Print | Product List | Glossary On
Versions: 1 2 3 4 5 6 7 8 9 10 11 12 13 14 15
000
FTUS41 KCAR 231753 AAA
TAFPQI
TAF AMD
KPQI 231753Z 2318/2418 30005KT P6SM VCTS BKN040CB
      TEMPO 2318/2319 3SM TSRA BR OVC030CB
     FM240000 31004KT P6SM BKN250=

USA.gov is the U.S. government's official web portal to all federal, state and local government web resources and services.